EDDCEDDN

Guest
Details From EDDC - Dresden
To EDDN - Nurnberg
Flight Number -
Tags generated
Created
Modified
Stats Distance 142 nm / 264 km
Max Altitude 14,800 ft / 4,511 m
Waypoints 3
Social Downloads 0
Likes 0
Share VATSIM

Download

Looking for another format? Having issues loading an existing format? Contact us
Advertisement - Login to hide

Notes

Basic altitude profile: - Ascent Rate: 500ft/min - Ascent Speed: 80kts - Cruise Altitude: 8500ft - Cruise Speed: 100kts - Descent Rate: 500ft/min - Descent Speed: 80kts Options: - Use NATs: yes - Use PACOTS: no - Use low airways: no - Use high airways: yes

Route

EDDC VARIK EDDN

ID Type Via Altitude Latitude Longitude Leg Dist Tot Dist Heading (true) Name
O EDDC APT - 0 ft / 0 m 51.13437˚ 13.76806˚ - 0 nm - Dresden
VARIK FIX - 14,800 ft / 4,511 m 50.29111˚ 12.38111˚ 73 nm 73 nm 227° / 226° -
O EDDN APT - 0 ft / 0 m 49.49874˚ 11.07758˚ 69 nm 142 nm 227° / 226° Nurnberg

Altitude Profile

Advertisement - Login to hide

EDDC

Details ICAO EDDC (DRS)
Name Dresden
Region Germany - Civil
Timezone Europe/Berlin (UTC+1.0)
Stats Elevation 752 ft / 229 m (AMSL)
Location 51.134366° 13.768065°
Runways 1
Magnetic Variation 3.798° E

METAR

EDDC 120620Z 22014KT 200V260 9999 BKN034 BKN040 08/02 Q0993 BECMG 22015G25KT

Decode

TAF

TAF EDDC 120500Z 1206/1306 20012KT 9999 SCT040 BECMG 1206/1208 24015G30KT TEMPO 1208/1215 25020G35KT BECMG 1217/1219 23010KT

Decode

Departure Runways

ID Width Length Bearing (true) Bearing (mag) Surface Threshold Offset Overrun Length
04 197 ft / 60 m 9,348 ft / 2,849 m 40.74° 36.94° Concrete 0 ft / 0 m 0 ft / 0 m
22 197 ft / 60 m 9,348 ft / 2,849 m 220.76° 216.96° Concrete 984 ft / 300 m 0 ft / 0 m

EDDN

Details ICAO EDDN (NUE)
Name Nurnberg
Region Germany - Civil
Timezone Europe/Berlin (UTC+1.0)
Stats Elevation 1,045 ft / 319 m (AMSL)
Location 49.498744° 11.077580°
Runways 1
Magnetic Variation 3.018° E

METAR

EDDN 120620Z 24017G28KT 9999 FEW015 BKN030 03/M02 Q1001 R28/190095 NOSIG

Decode

TAF

TAF TAF EDDN 120500Z 1206/1306 25020G35KT 9999 SCT020 BKN040 BECMG 1206/1208 25015G25KT BECMG 1209/1211 24010KT PROB30 TEMPO 1212/1216 4000 -SHSN BKN020TCU BECMG 1215/1217 24005KT BECMG 1220/1222 18005KT PROB30 TEMPO 1221/1224 4000 -SHSN BKN020TCU

Decode

Destination Runways

ID Width Length Bearing (true) Bearing (mag) Surface Threshold Offset Overrun Length
10 148 ft / 45 m 8,819 ft / 2,688 m 98.60° 95.58° Asphalt 0 ft / 0 m 0 ft / 0 m
28 148 ft / 45 m 8,819 ft / 2,688 m 278.63° 275.61° Asphalt 0 ft / 0 m 0 ft / 0 m

Approach Navaids

Runway Type Ident Frequency Range Bearing (true) Bearing (mag) Slope Elevation
10 Localiser INUE 111.30 MHz 18 nm / 33 km 98.64° 95.62° - 1,046 ft / 319 m (AMSL)
10 Glidescope INUE 111.30 MHz 10 nm / 19 km 98.61° 95.60° 3.00° 1,022 ft / 312 m (AMSL)
28 Localiser INUW 109.10 MHz 23 nm / 43 km 278.59° 275.57° - 1,122 ft / 342 m (AMSL)
28 Glidescope INUW 109.10 MHz 10 nm / 19 km 278.62° 275.60° 3.00° 1,046 ft / 319 m (AMSL)

Popular Alternatives